Time;durP1;ratioP1;P1;durP2;ratioP2;P2;SDS_P1;SDS_P2;PMS_P1;PMS_P2;Temp;Humidity;BMP_temperature;BMP_pressure;BME280_temperature;BME280_humidity;BME280_pressure;Samples;Min_cycle;Max_cycle;Signal;HPM_P1;HPM_P2
2023/01/18 00:01:12;;;;;;;5.67;3.57;;;6.40;99.90;;;;;;4227102;28;20048;-62
2023/01/18 00:03:13;;;;;;;5.70;3.57;;;6.50;99.90;;;;;;4227351;28;20028;-66
2023/01/18 00:05:14;;;;;;;3.97;3.00;;;6.50;99.90;;;;;;4227832;28;20525;-64
2023/01/18 00:07:15;;;;;;;5.67;3.40;;;6.50;99.90;;;;;;4227107;28;20562;-63
2023/01/18 00:09:17;;;;;;;6.30;3.43;;;6.60;99.90;;;;;;4227058;28;20438;-63
2023/01/18 00:11:18;;;;;;;3.70;2.53;;;6.60;99.90;;;;;;4226195;28;20092;-63
2023/01/18 00:13:19;;;;;;;3.87;3.10;;;6.60;99.90;;;;;;4228347;28;20528;-64
2023/01/18 00:15:20;;;;;;;4.07;3.10;;;6.60;99.90;;;;;;4226689;28;20073;-62
2023/01/18 00:17:21;;;;;;;4.87;3.17;;;6.70;99.90;;;;;;4228230;28;20028;-63
2023/01/18 00:19:22;;;;;;;5.67;2.90;;;6.80;99.90;;;;;;4226875;28;20101;-63
2023/01/18 00:21:25;;;;;;;7.40;3.20;;;6.80;99.90;;;;;;4227641;28;20100;-63
2023/01/18 00:23:27;;;;;;;7.43;2.90;;;6.90;99.90;;;;;;4226820;28;20024;-63
2023/01/18 00:25:28;;;;;;;5.03;2.67;;;6.90;99.90;;;;;;4227865;28;20070;-64
2023/01/18 00:27:30;;;;;;;6.30;2.90;;;6.90;99.90;;;;;;4226940;28;20053;-63
2023/01/18 00:29:31;;;;;;;6.00;2.90;;;7.00;99.90;;;;;;4227447;28;20039;-64
2023/01/18 00:31:32;;;;;;;6.07;2.97;;;7.00;99.90;;;;;;4227331;28;20016;-64
2023/01/18 00:33:33;;;;;;;2.27;2.07;;;7.00;99.90;;;;;;4227170;28;20019;-63
2023/01/18 00:35:34;;;;;;;5.87;2.87;;;7.20;99.90;;;;;;4227480;28;20055;-63
2023/01/18 00:37:36;;;;;;;3.80;2.70;;;7.20;99.90;;;;;;4226350;28;20546;-64
2023/01/18 00:39:39;;;;;;;3.53;2.67;;;7.20;99.90;;;;;;4226080;28;20441;-64
2023/01/18 00:43:37;;;;;;;3.87;2.90;;;7.20;99.90;;;;;;4226638;28;20032;-63
2023/01/18 00:44:01;;;;;;;4.03;2.63;;;7.10;99.90;;;;;;4211329;28;20078;-63
2023/01/18 00:46:04;;;;;;;5.37;2.90;;;7.10;99.90;;;;;;4223539;28;20043;-66
2023/01/18 00:48:05;;;;;;;3.23;2.47;;;7.10;99.90;;;;;;4230047;28;20204;-64
2023/01/18 00:50:07;;;;;;;5.60;2.70;;;7.10;99.90;;;;;;4229693;28;20448;-64
2023/01/18 00:52:08;;;;;;;3.90;2.77;;;7.10;99.90;;;;;;4230996;28;20093;-63
2023/01/18 00:54:09;;;;;;;5.07;2.70;;;7.20;99.90;;;;;;4229968;28;21051;-69
2023/01/18 00:56:14;;;;;;;3.33;2.43;;;7.20;99.90;;;;;;4230995;28;20084;-63
2023/01/18 00:58:15;;;;;;;4.60;3.17;;;7.20;99.90;;;;;;4229055;28;20675;-65
2023/01/18 01:00:18;;;;;;;3.97;2.53;;;7.20;99.90;;;;;;4230761;28;20036;-64
2023/01/18 01:02:19;;;;;;;4.97;2.73;;;7.30;99.90;;;;;;4229210;28;20048;-63
2023/01/18 01:06:43;;;;;;;3.00;2.50;;;7.30;99.90;;;;;;4230367;28;20027;-65
2023/01/18 01:08:48;;;;;;;6.60;2.83;;;7.40;99.90;;;;;;4230582;28;20035;-63
2023/01/18 01:10:51;;;;;;;4.73;2.70;;;7.40;99.90;;;;;;4229292;28;20101;-64
2023/01/18 01:26:54;;;;;;;1.67;1.58;;;7.70;99.90;;;;;;4230927;28;20039;-62
2023/01/18 01:28:55;;;;;;;2.00;1.77;;;7.90;99.90;;;;;;4229389;28;20081;-62
2023/01/18 01:30:59;;;;;;;3.37;1.90;;;8.00;99.90;;;;;;4229624;28;20035;-63
2023/01/18 01:33:00;;;;;;;2.47;1.40;;;8.10;99.90;;;;;;4229095;28;20421;-66
2023/01/18 01:35:01;;;;;;;1.77;1.20;;;8.10;99.90;;;;;;4230195;28;20084;-63
2023/01/18 01:37:03;;;;;;;1.93;1.40;;;8.20;99.90;;;;;;4229132;28;20077;-62
2023/01/18 01:39:05;;;;;;;1.20;1.10;;;8.20;99.90;;;;;;4230383;28;20051;-63
2023/01/18 01:41:18;;;;;;;2.33;1.63;;;8.20;99.90;;;;;;4228985;28;20047;-63
2023/01/18 01:43:36;;;;;;;1.87;1.17;;;8.20;99.90;;;;;;4229783;28;20048;-64
2023/01/18 01:45:38;;;;;;;1.57;1.17;;;8.20;99.90;;;;;;4229128;28;20040;-63
2023/01/18 01:47:42;;;;;;;2.13;1.43;;;8.30;99.90;;;;;;4228220;28;20036;-63
2023/01/18 01:49:53;;;;;;;1.70;1.20;;;8.30;99.90;;;;;;4228949;28;20032;-63
2023/01/18 01:52:00;;;;;;;1.63;0.73;;;8.30;99.90;;;;;;4229754;28;20052;-63
2023/01/18 01:54:06;;;;;;;2.87;1.07;;;8.30;99.90;;;;;;4228921;28;20455;-61
2023/01/18 01:56:08;;;;;;;2.07;1.03;;;8.30;99.90;;;;;;4229717;28;20032;-63
2023/01/18 01:58:21;;;;;;;1.13;0.93;;;8.30;99.90;;;;;;4228649;28;20377;-63
2023/01/18 02:00:23;;;;;;;1.13;0.90;;;8.30;99.90;;;;;;4212594;28;20418;-64
2023/01/18 02:02:24;;;;;;;3.13;1.10;;;8.30;99.90;;;;;;4212285;28;20032;-63
2023/01/18 02:04:25;;;;;;;1.97;1.30;;;8.30;99.90;;;;;;4212457;28;20369;-62
2023/01/18 02:06:32;;;;;;;1.10;1.00;;;8.20;99.90;;;;;;4212543;28;20101;-65
2023/01/18 02:08:33;;;;;;;3.20;2.10;;;8.20;99.90;;;;;;4212081;28;20073;-64
2023/01/18 02:10:35;;;;;;;3.27;1.93;;;8.10;99.90;;;;;;4212275;28;20492;-64
2023/01/18 02:12:39;;;;;;;4.00;2.23;;;8.10;99.90;;;;;;4219468;28;20043;-64
2023/01/18 02:14:41;;;;;;;2.73;1.70;;;8.10;99.90;;;;;;4229432;28;20044;-64
2023/01/18 02:17:07;;;;;;;3.60;2.23;;;8.00;99.90;;;;;;4227055;28;20505;-62
2023/01/18 02:19:08;;;;;;;2.97;2.27;;;8.00;99.90;;;;;;4228604;28;20437;-64
2023/01/18 02:21:14;;;;;;;3.70;2.23;;;7.90;99.90;;;;;;4228218;28;20108;-63
2023/01/18 02:23:24;;;;;;;5.67;3.17;;;7.80;99.90;;;;;;4229656;28;20032;-63
2023/01/18 02:25:25;;;;;;;8.65;3.90;;;7.70;99.90;;;;;;4228458;28;20028;-64
2023/01/18 02:27:54;;;;;;;5.40;3.40;;;7.70;99.90;;;;;;4229572;28;20031;-63
2023/01/18 02:30:08;;;;;;;6.03;3.43;;;7.70;99.90;;;;;;4228151;28;20054;-63
2023/01/18 02:32:21;;;;;;;7.90;3.23;;;7.60;99.90;;;;;;4229196;28;20031;-63
2023/01/18 02:34:43;;;;;;;5.53;3.20;;;7.70;99.90;;;;;;4228208;28;20672;-64
2023/01/18 02:37:11;;;;;;;5.00;3.30;;;7.70;99.90;;;;;;4228977;28;20092;-64
2023/01/18 02:39:30;;;;;;;18.67;11.57;;;7.70;99.90;;;;;;4228761;28;20032;-64
2023/01/18 02:46:32;;;;;;;4.57;2.08;;;7.80;99.90;;;;;;4220198;28;20036;-64
2023/01/18 02:48:44;;;;;;;2.90;1.47;;;7.80;99.90;;;;;;4212500;28;20040;-65
2023/01/18 02:50:45;;;;;;;3.10;2.10;;;7.90;99.90;;;;;;4211162;28;20770;-63
2023/01/18 02:52:48;;;;;;;2.47;1.73;;;7.90;99.90;;;;;;4212415;28;20101;-64
2023/01/18 02:54:49;;;;;;;2.03;1.83;;;7.80;99.90;;;;;;4211090;28;20028;-63
2023/01/18 02:56:53;;;;;;;2.47;1.90;;;7.80;99.90;;;;;;4212119;28;20430;-64
2023/01/18 02:59:09;;;;;;;2.50;1.80;;;7.90;99.90;;;;;;4211091;28;20082;-63
2023/01/18 03:01:32;;;;;;;3.00;2.47;;;7.90;99.90;;;;;;4221110;28;20081;-63
2023/01/18 03:03:34;;;;;;;3.73;2.00;;;7.80;99.90;;;;;;4227501;28;20093;-63
2023/01/18 03:05:38;;;;;;;2.70;2.13;;;7.80;99.90;;;;;;4228907;28;20024;-63
2023/01/18 03:07:52;;;;;;;3.87;2.33;;;7.80;99.90;;;;;;4227467;28;20015;-63
2023/01/18 03:09:54;;;;;;;2.47;1.77;;;7.80;99.90;;;;;;4227870;28;20039;-63
2023/01/18 03:12:53;;;;;;;4.03;2.30;;;7.80;99.90;;;;;;4227222;28;20104;-63
2023/01/18 03:15:10;;;;;;;3.27;2.30;;;7.80;99.90;;;;;;4183175;28;20044;-63
2023/01/18 03:17:27;;;;;;;4.30;2.73;;;7.70;99.90;;;;;;4227483;28;20109;-63
2023/01/18 03:20:07;;;;;;;3.07;2.17;;;7.70;99.90;;;;;;4227109;28;20089;-65
2023/01/18 03:22:09;;;;;;;4.47;1.83;;;7.70;99.90;;;;;;4225675;28;20056;-63
2023/01/18 03:24:13;;;;;;;3.93;2.20;;;7.60;99.90;;;;;;4228230;28;20039;-62
2023/01/18 03:26:18;;;;;;;4.30;2.43;;;7.70;99.90;;;;;;4227278;28;20089;-64
2023/01/18 03:33:44;;;;;;;2.63;2.00;;;7.70;99.90;;;;;;4227242;28;20024;-63
2023/01/18 03:35:47;;;;;;;3.63;2.30;;;7.70;99.90;;;;;;4227856;28;20043;-63
2023/01/18 03:37:53;;;;;;;3.53;1.93;;;7.80;99.90;;;;;;4227465;28;20027;-64
2023/01/18 03:40:02;;;;;;;3.73;1.70;;;7.80;99.90;;;;;;4228050;28;20433;-63
2023/01/18 03:42:07;;;;;;;3.03;1.63;;;7.80;99.90;;;;;;4227492;28;20100;-63
2023/01/18 03:44:15;;;;;;;2.00;1.30;;;8.00;99.90;;;;;;4228107;28;20019;-62
2023/01/18 03:46:18;;;;;;;2.53;1.67;;;8.10;99.90;;;;;;4227342;28;20055;-63
2023/01/18 03:48:20;;;;;;;2.60;1.47;;;8.20;99.90;;;;;;4227280;28;20422;-63
2023/01/18 03:50:42;;;;;;;2.33;1.40;;;8.30;99.90;;;;;;4227266;28;20088;-63
2023/01/18 03:52:49;;;;;;;1.43;1.23;;;8.30;99.90;;;;;;4227767;28;20421;-64
2023/01/18 03:55:09;;;;;;;1.80;1.60;;;8.40;99.90;;;;;;4227615;28;20088;-62
2023/01/18 03:57:22;;;;;;;2.15;1.65;;;8.50;99.90;;;;;;4227775;28;20426;-63
2023/01/18 03:59:28;;;;;;;2.10;1.87;;;8.50;99.90;;;;;;4227208;28;20121;-62
2023/01/18 04:01:30;;;;;;;3.03;1.83;;;8.50;99.90;;;;;;4226208;28;20061;-63
2023/01/18 04:03:32;;;;;;;2.43;1.37;;;8.40;99.90;;;;;;4227373;28;20072;-64
2023/01/18 04:05:34;;;;;;;3.07;1.37;;;8.40;99.90;;;;;;4227461;28;20036;-62
2023/01/18 04:07:35;;;;;;;2.70;1.43;;;8.40;99.90;;;;;;4227339;28;20093;-62
2023/01/18 04:09:36;;;;;;;2.13;1.60;;;8.40;99.90;;;;;;4226767;28;20077;-62
2023/01/18 04:11:37;;;;;;;1.47;1.23;;;8.40;99.90;;;;;;4227931;28;20035;-63
2023/01/18 04:13:38;;;;;;;3.30;1.70;;;8.40;99.90;;;;;;4226944;28;20019;-63
2023/01/18 04:15:40;;;;;;;2.40;1.90;;;8.40;99.90;;;;;;4227684;28;20085;-64
2023/01/18 04:17:41;;;;;;;2.43;1.50;;;8.40;99.90;;;;;;4225879;28;20562;-64
2023/01/18 04:19:42;;;;;;;2.50;1.80;;;8.30;99.90;;;;;;4227573;28;20078;-63
2023/01/18 04:21:43;;;;;;;4.53;2.00;;;8.30;99.90;;;;;;4228239;28;20044;-63
2023/01/18 04:23:44;;;;;;;2.90;2.20;;;8.30;99.90;;;;;;4231283;28;20472;-62
2023/01/18 04:25:48;;;;;;;4.47;1.73;;;8.20;99.90;;;;;;4229490;28;20032;-62
2023/01/18 04:27:49;;;;;;;3.83;1.37;;;8.10;99.90;;;;;;4231393;28;20024;-66
2023/01/18 04:29:51;;;;;;;1.87;1.47;;;8.10;99.90;;;;;;4230142;28;20012;-62
2023/01/18 04:31:52;;;;;;;3.17;1.97;;;8.10;99.90;;;;;;4230809;28;20084;-61
2023/01/18 04:33:53;;;;;;;3.33;1.80;;;8.10;99.90;;;;;;4229711;28;20035;-61
2023/01/18 04:35:55;;;;;;;2.43;1.80;;;8.10;99.90;;;;;;4229405;28;20043;-63
2023/01/18 04:37:56;;;;;;;4.63;2.20;;;8.10;99.90;;;;;;4230229;28;20031;-63
2023/01/18 04:39:57;;;;;;;2.43;2.10;;;8.10;99.90;;;;;;4230211;28;20116;-62
2023/01/18 04:41:58;;;;;;;2.70;1.50;;;8.20;99.90;;;;;;4230657;28;20039;-64
2023/01/18 04:43:59;;;;;;;1.90;1.03;;;8.20;99.90;;;;;;4229788;28;20565;-63
2023/01/18 04:46:01;;;;;;;1.00;0.70;;;8.30;99.90;;;;;;4231274;28;20028;-63
2023/01/18 04:48:02;;;;;;;0.73;0.60;;;8.50;99.90;;;;;;4229862;28;20093;-63
2023/01/18 04:50:03;;;;;;;1.10;1.00;;;8.70;99.90;;;;;;4230443;28;20549;-63
2023/01/18 04:52:06;;;;;;;0.87;0.70;;;9.00;99.90;;;;;;4229470;28;20043;-64
2023/01/18 04:54:07;;;;;;;1.77;0.70;;;9.10;99.90;;;;;;4230501;28;20084;-63
2023/01/18 04:56:09;;;;;;;1.80;0.77;;;9.20;99.90;;;;;;4229461;28;20048;-63
2023/01/18 04:58:11;;;;;;;1.63;1.17;;;9.30;99.90;;;;;;4230170;28;20417;-63
2023/01/18 05:00:15;;;;;;;1.63;0.87;;;9.40;99.90;;;;;;4228475;28;20073;-64
2023/01/18 05:02:16;;;;;;;0.57;0.50;;;9.40;99.90;;;;;;4230128;28;20040;-66
2023/01/18 05:04:17;;;;;;;1.50;0.90;;;9.50;99.90;;;;;;4229007;28;20093;-63
2023/01/18 05:06:18;;;;;;;0.93;0.80;;;9.50;99.90;;;;;;4229424;28;20077;-67
2023/01/18 05:08:20;;;;;;;0.90;0.80;;;9.50;99.90;;;;;;4229743;28;20032;-63
2023/01/18 05:10:22;;;;;;;1.70;0.90;;;9.50;99.90;;;;;;4229321;28;20104;-63
2023/01/18 05:12:23;;;;;;;1.10;1.00;;;9.50;99.90;;;;;;4229837;28;20480;-63
2023/01/18 05:14:24;;;;;;;0.93;0.80;;;9.50;99.90;;;;;;4228745;28;20031;-68
2023/01/18 05:16:26;;;;;;;1.60;0.80;;;9.50;99.90;;;;;;4229499;28;20132;-62
2023/01/18 05:18:28;;;;;;;4.33;2.00;;;9.50;99.90;;;;;;4228077;28;20023;-62
2023/01/18 05:20:29;;;;;;;2.93;1.40;;;9.50;99.90;;;;;;4229782;28;20029;-62
2023/01/18 05:22:31;;;;;;;3.77;1.00;;;9.50;99.90;;;;;;4227970;28;20560;-63
2023/01/18 05:24:32;;;;;;;2.40;0.97;;;9.40;99.90;;;;;;4228626;28;20023;-63
2023/01/18 05:26:34;;;;;;;2.40;1.27;;;9.40;99.90;;;;;;4227395;28;20032;-64
2023/01/18 05:28:35;;;;;;;3.97;1.63;;;9.40;99.90;;;;;;4229156;28;20035;-63
2023/01/18 05:30:41;;;;;;;1.03;0.90;;;9.40;99.90;;;;;;4227855;28;20036;-63
2023/01/18 05:32:42;;;;;;;4.00;2.70;;;9.30;99.90;;;;;;4227300;28;20031;-61
2023/01/18 05:34:43;;;;;;;7.10;4.77;;;9.20;99.90;;;;;;4228352;28;20052;-62
2023/01/18 05:36:46;;;;;;;9.07;5.47;;;9.00;99.90;;;;;;4228300;28;20441;-64
2023/01/18 05:38:47;;;;;;;8.50;5.00;;;8.90;99.90;;;;;;4221543;28;20108;-64
2023/01/18 05:40:51;;;;;;;6.67;4.90;;;8.70;99.90;;;;;;4229082;28;20032;-65
2023/01/18 05:42:52;;;;;;;5.37;4.03;;;8.50;99.90;;;;;;4228517;28;20453;-69
2023/01/18 05:44:53;;;;;;;6.67;4.20;;;8.40;99.90;;;;;;4228410;28;20024;-65
2023/01/18 05:46:54;;;;;;;7.53;4.43;;;8.40;99.90;;;;;;4226989;28;20378;-69
2023/01/18 05:48:58;;;;;;;5.37;3.97;;;8.40;99.90;;;;;;4228245;28;20116;-64
2023/01/18 05:51:05;;;;;;;5.57;3.20;;;8.40;99.90;;;;;;4229778;28;20019;-64
2023/01/18 05:53:06;;;;;;;4.80;3.10;;;8.40;99.90;;;;;;4228577;27;20043;-63
2023/01/18 05:55:07;;;;;;;2.67;1.70;;;8.50;99.90;;;;;;4229287;28;20035;-63
2023/01/18 05:57:09;;;;;;;2.47;1.97;;;8.60;99.90;;;;;;4227739;28;20028;-63
2023/01/18 05:59:12;;;;;;;2.30;1.70;;;8.60;99.90;;;;;;4229262;28;20035;-64
2023/01/18 06:01:13;;;;;;;1.60;1.50;;;8.60;99.90;;;;;;4228078;28;20472;-64
2023/01/18 06:03:14;;;;;;;2.40;1.10;;;8.60;99.90;;;;;;4230127;27;20048;-69
2023/01/18 06:05:16;;;;;;;2.40;1.20;;;8.60;99.90;;;;;;4228144;28;20438;-63
2023/01/18 06:07:17;;;;;;;2.53;1.63;;;8.60;99.90;;;;;;4229500;28;20088;-65
2023/01/18 06:09:18;;;;;;;1.30;1.10;;;8.60;99.90;;;;;;4226538;28;20047;-62
2023/01/18 06:11:19;;;;;;;3.47;2.03;;;8.60;99.90;;;;;;4227827;28;20035;-65
2023/01/18 06:13:21;;;;;;;2.93;1.30;;;8.50;99.90;;;;;;4228341;28;20019;-68
2023/01/18 06:15:22;;;;;;;2.13;1.43;;;8.50;99.90;;;;;;4228799;28;20430;-68
2023/01/18 06:17:23;;;;;;;2.47;1.37;;;8.50;99.90;;;;;;4228657;28;20031;-63
2023/01/18 06:19:24;;;;;;;2.13;1.30;;;8.50;99.90;;;;;;4228252;28;20035;-69
2023/01/18 06:21:26;;;;;;;1.70;1.17;;;8.50;99.90;;;;;;4228951;28;20027;-62
2023/01/18 06:23:28;;;;;;;3.00;1.60;;;8.40;99.90;;;;;;4227836;28;20120;-66
2023/01/18 06:25:29;;;;;;;3.20;1.30;;;8.40;99.90;;;;;;4229001;28;20048;-63
2023/01/18 06:27:30;;;;;;;2.73;1.87;;;8.40;99.90;;;;;;4227758;28;20028;-63
2023/01/18 06:29:31;;;;;;;1.87;1.70;;;8.40;99.90;;;;;;4228686;28;20049;-63
2023/01/18 06:31:33;;;;;;;3.03;1.53;;;8.30;99.90;;;;;;4227475;28;20040;-62
2023/01/18 06:33:34;;;;;;;4.07;1.80;;;8.30;99.90;;;;;;4228941;28;20080;-62
2023/01/18 06:35:36;;;;;;;1.47;1.23;;;8.30;99.90;;;;;;4227540;28;20488;-63
2023/01/18 06:37:37;;;;;;;1.47;1.20;;;8.30;99.90;;;;;;4228887;28;20027;-62
2023/01/18 06:39:38;;;;;;;2.90;1.07;;;8.40;99.90;;;;;;4227960;28;20027;-64
2023/01/18 06:41:40;;;;;;;4.00;1.40;;;8.50;99.90;;;;;;4228718;28;20085;-63
2023/01/18 06:43:42;;;;;;;1.97;1.57;;;8.60;99.90;;;;;;4227907;28;20381;-64
2023/01/18 06:45:43;;;;;;;3.30;1.53;;;8.60;99.90;;;;;;4227465;28;20031;-62
2023/01/18 06:47:44;;;;;;;3.40;1.30;;;8.70;99.90;;;;;;4228073;28;20027;-63
2023/01/18 06:49:49;;;;;;;4.60;1.37;;;8.70;99.90;;;;;;4227841;28;20028;-63
2023/01/18 06:51:50;;;;;;;2.50;1.50;;;8.80;99.90;;;;;;4228407;28;20040;-63
2023/01/18 06:53:51;;;;;;;1.00;0.83;;;9.00;99.90;;;;;;4227566;28;20072;-64
2023/01/18 06:55:57;;;;;;;1.83;0.90;;;9.10;99.90;;;;;;4228675;28;20027;-63
2023/01/18 06:57:58;;;;;;;1.90;1.33;;;9.20;99.90;;;;;;4227503;28;20135;-64
2023/01/18 07:00:00;;;;;;;2.80;1.10;;;9.20;99.90;;;;;;4228401;28;20089;-62
2023/01/18 07:02:01;;;;;;;1.33;0.93;;;9.30;99.90;;;;;;4226417;28;20112;-64
2023/01/18 07:04:04;;;;;;;2.17;1.40;;;9.40;99.90;;;;;;4228105;28;20076;-63
2023/01/18 07:06:06;;;;;;;2.57;1.70;;;9.40;99.90;;;;;;4226971;28;20020;-63
2023/01/18 07:08:07;;;;;;;1.97;1.20;;;9.50;99.90;;;;;;4228138;28;20518;-67
2023/01/18 07:10:09;;;;;;;1.53;1.13;;;9.50;99.90;;;;;;4226705;28;20066;-62
2023/01/18 07:12:10;;;;;;;3.33;1.50;;;9.50;99.90;;;;;;4227534;28;20495;-66
2023/01/18 07:14:12;;;;;;;2.57;2.13;;;9.50;99.90;;;;;;4226779;28;20105;-62
2023/01/18 07:16:16;;;;;;;3.63;2.57;;;9.50;99.90;;;;;;4227983;28;20333;-62
2023/01/18 07:18:17;;;;;;;2.43;1.87;;;9.50;99.90;;;;;;4227140;28;20035;-62
2023/01/18 07:20:18;;;;;;;5.83;1.77;;;9.40;99.90;;;;;;4227831;28;20096;-63
2023/01/18 07:22:20;;;;;;;3.17;1.57;;;9.40;99.90;;;;;;4227713;28;20023;-65
2023/01/18 07:24:21;;;;;;;3.70;1.77;;;9.30;99.90;;;;;;4227340;28;20131;-64
2023/01/18 07:26:22;;;;;;;2.77;1.40;;;9.20;99.90;;;;;;4227973;28;20131;-62
2023/01/18 07:28:23;;;;;;;2.40;1.33;;;9.20;99.90;;;;;;4227058;28;20077;-63
2023/01/18 07:30:25;;;;;;;2.07;1.40;;;9.20;99.90;;;;;;4228084;28;20027;-63
2023/01/18 07:32:26;;;;;;;2.73;1.87;;;9.10;99.90;;;;;;4227162;28;20104;-63
2023/01/18 07:34:27;;;;;;;3.60;1.40;;;9.10;99.90;;;;;;4226595;28;20035;-63
2023/01/18 07:36:28;;;;;;;2.03;1.00;;;9.10;99.90;;;;;;4227009;28;20061;-63
2023/01/18 07:38:30;;;;;;;3.53;1.47;;;9.10;99.90;;;;;;4228036;28;20088;-64
2023/01/18 07:40:31;;;;;;;1.77;1.30;;;9.10;99.90;;;;;;4226859;28;20088;-64
2023/01/18 07:42:32;;;;;;;1.37;1.20;;;9.20;99.90;;;;;;4228106;28;20028;-63
2023/01/18 07:44:33;;;;;;;1.53;1.10;;;9.20;99.90;;;;;;4226706;28;20028;-62
2023/01/18 07:46:34;;;;;;;3.10;1.53;;;9.20;99.90;;;;;;4228380;28;20027;-63
2023/01/18 07:48:35;;;;;;;2.37;1.20;;;9.20;99.90;;;;;;4227070;28;20019;-66
2023/01/18 07:50:37;;;;;;;0.47;0.30;;;9.20;99.90;;;;;;4227554;28;20107;-63
2023/01/18 07:52:38;;;;;;;2.80;0.40;;;9.30;99.90;;;;;;4227343;28;20036;-64
2023/01/18 07:54:39;;;;;;;0.30;0.07;;;9.40;99.90;;;;;;4227186;28;20083;-64
2023/01/18 07:56:40;;;;;;;0.40;0.20;;;9.50;99.90;;;;;;4227168;28;20055;-63
2023/01/18 07:58:41;;;;;;;0.30;0.10;;;9.70;99.90;;;;;;4226791;28;20057;-64
2023/01/18 08:00:43;;;;;;;0.33;0.13;;;9.90;99.90;;;;;;4227824;28;20057;-62
2023/01/18 08:02:49;;;;;;;3.00;0.20;;;9.90;99.90;;;;;;4226552;28;20116;-63
2023/01/18 08:04:50;;;;;;;0.70;0.20;;;9.90;99.90;;;;;;4227999;28;20036;-63
2023/01/18 08:06:51;;;;;;;1.00;0.40;;;9.90;99.90;;;;;;4226531;28;20434;-65
2023/01/18 08:08:55;;;;;;;0.57;0.20;;;9.90;99.90;;;;;;4226302;28;20035;-63
2023/01/18 08:10:59;;;;;;;2.47;0.30;;;9.90;99.90;;;;;;4226658;28;20028;-64
2023/01/18 08:13:00;;;;;;;0.80;0.30;;;9.80;99.90;;;;;;4227845;28;20031;-62
2023/01/18 08:15:03;;;;;;;0.67;0.40;;;9.80;99.90;;;;;;4226466;28;20069;-64
2023/01/18 08:17:05;;;;;;;1.20;0.50;;;9.80;99.90;;;;;;4228078;28;20062;-66
2023/01/18 08:19:06;;;;;;;0.67;0.10;;;9.80;99.90;;;;;;4226561;28;20019;-69
2023/01/18 08:21:09;;;;;;;1.47;0.20;;;9.80;99.90;;;;;;4227402;28;20031;-63
2023/01/18 08:23:11;;;;;;;2.90;0.30;;;9.80;99.90;;;;;;4226581;28;20040;-63
2023/01/18 08:25:12;;;;;;;1.47;0.53;;;9.80;99.90;;;;;;4227247;28;20057;-63
2023/01/18 08:27:15;;;;;;;2.03;0.40;;;9.80;99.90;;;;;;4227116;28;20032;-64
2023/01/18 08:29:16;;;;;;;0.13;0.07;;;9.90;99.90;;;;;;4226913;28;20061;-65
2023/01/18 08:31:20;;;;;;;2.20;0.50;;;9.90;99.90;;;;;;4226876;28;20039;-63
2023/01/18 08:33:21;;;;;;;0.30;0.10;;;9.90;99.90;;;;;;4226331;28;20088;-63
2023/01/18 08:35:24;;;;;;;0.70;0.20;;;9.90;99.90;;;;;;4227297;28;20507;-63
2023/01/18 08:37:27;;;;;;;6.93;2.57;;;9.90;99.90;;;;;;4226456;28;20088;-64
2023/01/18 08:39:28;;;;;;;10.00;2.50;;;9.90;99.90;;;;;;4227523;28;20035;-63
2023/01/18 08:41:29;;;;;;;6.57;2.70;;;9.90;99.90;;;;;;4226347;28;20032;-63
2023/01/18 08:43:30;;;;;;;2.57;1.20;;;9.90;99.90;;;;;;4227373;28;20121;-63
2023/01/18 08:45:33;;;;;;;2.57;1.50;;;9.90;99.90;;;;;;4226371;28;20476;-62
2023/01/18 08:47:34;;;;;;;2.20;0.33;;;9.90;99.90;;;;;;4227585;28;20039;-66
2023/01/18 08:49:36;;;;;;;3.73;1.40;;;10.00;99.90;;;;;;4226278;28;20484;-66
2023/01/18 08:51:37;;;;;;;4.07;1.80;;;9.90;99.90;;;;;;4227556;28;20099;-64
2023/01/18 08:53:39;;;;;;;4.50;2.27;;;9.90;99.90;;;;;;4224837;28;20040;-63
2023/01/18 08:55:40;;;;;;;3.63;1.77;;;9.90;99.90;;;;;;4226897;28;20047;-63
2023/01/18 08:57:41;;;;;;;3.87;1.57;;;10.10;99.90;;;;;;4226619;28;20024;-63
2023/01/18 08:59:42;;;;;;;3.10;1.87;;;10.30;99.90;;;;;;4226670;28;20028;-65
2023/01/18 09:01:43;;;;;;;4.00;1.70;;;10.40;99.90;;;;;;4226999;28;20020;-63
2023/01/18 09:03:46;;;;;;;2.10;1.33;;;10.50;99.90;;;;;;4226365;28;20421;-63
2023/01/18 09:05:48;;;;;;;2.57;1.30;;;10.50;99.90;;;;;;4226809;28;20051;-66
2023/01/18 09:07:53;;;;;;;2.23;1.53;;;10.60;99.90;;;;;;4226412;28;20098;-64
2023/01/18 09:09:54;;;;;;;2.50;1.10;;;10.40;99.90;;;;;;4230448;28;20475;-65
2023/01/18 09:11:57;;;;;;;1.67;0.97;;;10.50;99.90;;;;;;4229053;28;20417;-62
2023/01/18 09:13:58;;;;;;;2.10;1.80;;;10.50;99.90;;;;;;4230273;28;20417;-63
2023/01/18 09:16:04;;;;;;;1.47;1.10;;;10.60;99.90;;;;;;4229324;28;20024;-63
2023/01/18 09:18:06;;;;;;;2.27;1.50;;;10.70;99.90;;;;;;4230467;28;20024;-63
2023/01/18 09:20:10;;;;;;;1.83;1.27;;;10.70;99.90;;;;;;4229006;28;20027;-63
2023/01/18 09:22:12;;;;;;;4.60;1.63;;;10.70;99.90;;;;;;4230177;28;20459;-63
2023/01/18 09:24:13;;;;;;;2.57;1.80;;;10.60;99.90;;;;;;4228629;28;20101;-62
2023/01/18 09:26:19;;;;;;;2.63;1.67;;;10.60;99.90;;;;;;4230182;28;20096;-64
2023/01/18 09:28:21;;;;;;;3.20;1.80;;;10.60;99.90;;;;;;4228793;28;20023;-61
2023/01/18 09:30:22;;;;;;;3.30;2.03;;;10.70;99.90;;;;;;4229676;28;20061;-63
2023/01/18 09:32:24;;;;;;;2.67;1.43;;;10.90;99.90;;;;;;4229117;28;20096;-65
2023/01/18 09:34:25;;;;;;;2.23;1.30;;;11.00;99.90;;;;;;4229383;28;20019;-63
2023/01/18 09:36:26;;;;;;;2.23;1.40;;;11.00;99.90;;;;;;4229138;28;20085;-68
2023/01/18 09:38:29;;;;;;;4.50;1.90;;;11.00;99.90;;;;;;4229141;28;20027;-64
2023/01/18 09:40:43;;;;;;;1.50;1.23;;;11.00;99.90;;;;;;4229518;28;20312;-64
2023/01/18 09:42:47;;;;;;;3.87;1.30;;;11.00;99.90;;;;;;4228711;28;20023;-62
2023/01/18 09:44:52;;;;;;;2.40;1.70;;;11.00;99.90;;;;;;4229086;28;20089;-62
2023/01/18 09:46:58;;;;;;;3.83;2.23;;;11.00;99.90;;;;;;4228311;28;20039;-61
2023/01/18 09:49:03;;;;;;;2.87;2.20;;;10.90;99.90;;;;;;4229116;28;20100;-62
2023/01/18 09:51:19;;;;;;;2.97;1.97;;;10.70;99.90;;;;;;4228220;28;20039;-62
2023/01/18 09:53:39;;;;;;;4.37;2.50;;;10.50;99.90;;;;;;4229264;28;20020;-63
2023/01/18 09:55:55;;;;;;;3.50;2.33;;;10.40;99.90;;;;;;4228729;28;20536;-68
2023/01/18 09:58:07;;;;;;;4.80;2.63;;;10.40;99.90;;;;;;4228919;28;20032;-65
2023/01/18 10:00:28;;;;;;;4.53;2.60;;;10.30;99.90;;;;;;4228739;28;20027;-64
2023/01/18 10:02:38;;;;;;;7.25;2.95;;;10.30;99.90;;;;;;4228750;28;20088;-64
2023/01/18 10:04:45;;;;;;;4.43;3.00;;;10.20;99.90;;;;;;4228803;28;20056;-65
2023/01/18 10:06:59;;;;;;;5.03;2.63;;;10.20;99.90;;;;;;4228605;28;20093;-63
2023/01/18 10:09:16;;;;;;;5.50;3.03;;;10.20;99.90;;;;;;4228959;28;20069;-64
2023/01/18 10:11:30;;;;;;;4.67;3.40;;;10.30;99.90;;;;;;4228044;28;20035;-64
2023/01/18 10:13:52;;;;;;;6.00;3.43;;;10.30;99.90;;;;;;4228434;28;20438;-64
2023/01/18 10:15:53;;;;;;;9.03;3.47;;;10.40;99.90;;;;;;4227771;28;20089;-63
2023/01/18 10:17:59;;;;;;;7.73;3.53;;;10.50;99.90;;;;;;4229470;28;20080;-66
2023/01/18 10:20:11;;;;;;;4.80;3.13;;;10.60;99.90;;;;;;4227757;28;20098;-64
2023/01/18 10:22:28;;;;;;;6.30;3.80;;;10.70;99.90;;;;;;4228978;28;20028;-65
2023/01/18 10:25:02;;;;;;;6.43;2.63;;;10.80;99.90;;;;;;4227861;28;20096;-64
2023/01/18 10:27:18;;;;;;;6.23;2.83;;;10.90;99.90;;;;;;4229164;28;20044;-63
2023/01/18 10:29:38;;;;;;;3.57;2.73;;;10.90;99.90;;;;;;4227776;28;20035;-63
2023/01/18 10:32:11;;;;;;;2.70;2.27;;;11.00;99.90;;;;;;4229208;28;20096;-62
2023/01/18 10:34:19;;;;;;;5.97;3.00;;;11.10;99.90;;;;;;4214052;28;20043;-63
2023/01/18 10:36:31;;;;;;;4.40;2.90;;;11.20;99.90;;;;;;4228553;28;20167;-63
2023/01/18 10:38:33;;;;;;;5.83;3.00;;;11.30;99.90;;;;;;4227511;28;21078;-64
2023/01/18 10:40:36;;;;;;;3.60;2.40;;;11.40;99.90;;;;;;4228816;28;20471;-64
2023/01/18 10:42:47;;;;;;;4.73;2.17;;;11.50;99.90;;;;;;4227505;28;20081;-63
2023/01/18 10:44:48;;;;;;;3.97;2.00;;;11.60;99.90;;;;;;4228615;28;20081;-63
2023/01/18 10:46:58;;;;;;;4.40;2.10;;;11.70;99.90;;;;;;4227810;28;20023;-62
2023/01/18 10:48:59;;;;;;;3.53;2.17;;;11.80;99.90;;;;;;4228554;28;20065;-63
2023/01/18 10:51:04;;;;;;;5.63;2.43;;;11.80;99.90;;;;;;4227387;28;20249;-62
2023/01/18 10:53:32;;;;;;;4.40;1.90;;;11.90;99.90;;;;;;4228058;28;20039;-64
2023/01/18 10:55:33;;;;;;;3.30;2.00;;;12.00;99.90;;;;;;4227413;28;20088;-63
2023/01/18 10:57:42;;;;;;;2.83;1.80;;;11.90;99.90;;;;;;4228687;28;20028;-63
2023/01/18 10:59:43;;;;;;;6.40;2.60;;;12.00;99.90;;;;;;4227303;28;20524;-62
2023/01/18 11:01:53;;;;;;;6.30;2.83;;;12.00;99.90;;;;;;4228715;28;20451;-63
2023/01/18 11:04:21;;;;;;;1.98;1.00;;;12.10;99.90;;;;;;4227433;28;20438;-63
2023/01/18 11:06:24;;;;;;;2.70;2.07;;;12.10;99.90;;;;;;4228389;28;20035;-62
2023/01/18 11:08:34;;;;;;;4.20;2.50;;;12.30;99.90;;;;;;4227153;28;20088;-65
2023/01/18 11:10:36;;;;;;;3.50;1.60;;;12.30;99.90;;;;;;4228389;28;20460;-62
2023/01/18 11:12:44;;;;;;;5.23;2.10;;;12.20;99.90;;;;;;4227106;28;20032;-63
2023/01/18 11:14:46;;;;;;;0.43;0.20;;;12.10;99.90;;;;;;4227879;28;20532;-67
2023/01/18 11:17:02;;;;;;;7.03;1.70;;;11.90;99.90;;;;;;4227007;28;20077;-64
2023/01/18 11:19:18;;;;;;;1.07;0.40;;;11.60;99.90;;;;;;4228588;28;20023;-63
2023/01/18 11:21:19;;;;;;;1.47;0.20;;;11.40;99.90;;;;;;4227193;28;20730;-63
2023/01/18 11:23:31;;;;;;;1.87;0.30;;;11.20;99.90;;;;;;4228091;28;20084;-63